createdAt,value
2019-03-06T00:00:54.732Z,95.08
2019-03-06T00:03:23.614Z,93.90
2019-03-06T00:05:52.425Z,93.39
2019-03-06T00:08:21.067Z,94.01
2019-03-06T00:10:49.817Z,94.21
2019-03-06T00:13:18.488Z,94.36
2019-03-06T00:15:47.317Z,94.45
2019-03-06T00:18:15.944Z,94.73
2019-03-06T00:20:44.668Z,95.88
2019-03-06T00:23:13.365Z,95.75
2019-03-06T00:25:42.012Z,94.35
2019-03-06T00:28:11.069Z,93.24
2019-03-06T00:30:39.793Z,93.35
2019-03-06T00:33:08.419Z,93.45
2019-03-06T00:35:40.730Z,93.63
2019-03-06T00:38:09.341Z,93.38
2019-03-06T00:41:02.246Z,93.57
2019-03-06T00:43:30.890Z,93.91
2019-03-06T00:45:59.601Z,93.66
2019-03-06T00:48:28.702Z,93.05
2019-03-06T00:50:57.448Z,93.17
2019-03-06T00:53:26.099Z,93.15
2019-03-06T00:55:54.767Z,92.88
2019-03-06T00:58:25.061Z,92.84
2019-03-06T01:00:54.159Z,93.03
2019-03-06T01:03:22.979Z,93.22
2019-03-06T01:05:51.642Z,93.43
2019-03-06T01:08:20.296Z,93.67
2019-03-06T01:10:49.017Z,93.41
2019-03-06T01:13:17.984Z,93.50
2019-03-06T01:15:46.693Z,93.93
2019-03-06T01:18:15.336Z,94.38
2019-03-06T01:20:43.961Z,94.91
2019-03-06T01:23:12.617Z,95.27
2019-03-06T01:25:41.425Z,95.64
2019-03-06T01:28:10.131Z,95.65
2019-03-06T01:30:38.751Z,95.44
2019-03-06T01:33:13.872Z,94.88
2019-03-06T01:35:48.797Z,94.58
2019-03-06T01:38:39.223Z,94.48
2019-03-06T01:41:25.930Z,94.66
2019-03-06T01:43:58.522Z,94.87
2019-03-06T01:46:27.139Z,95.00
2019-03-06T01:48:55.847Z,95.90
2019-03-06T01:51:24.480Z,95.89
2019-03-06T01:53:53.390Z,96.10
2019-03-06T01:56:22.008Z,95.68
2019-03-06T01:58:50.642Z,96.19
2019-03-06T02:01:19.334Z,96.47
2019-03-06T02:03:47.979Z,95.50
2019-03-06T02:06:16.961Z,94.57
2019-03-06T02:08:45.600Z,94.19
2019-03-06T02:11:14.306Z,93.71
2019-03-06T02:13:43.026Z,92.90
2019-03-06T02:16:11.631Z,93.32
2019-03-06T02:18:40.459Z,93.45
2019-03-06T02:21:09.080Z,93.11
2019-03-06T02:23:37.783Z,92.65
2019-03-06T02:26:06.485Z,93.31
2019-03-06T02:28:35.123Z,93.55
2019-03-06T02:31:03.809Z,93.28
2019-03-06T02:33:32.468Z,92.44
2019-03-06T02:36:01.087Z,92.55
2019-03-06T02:38:29.725Z,92.76
2019-03-06T02:40:58.358Z,93.05
2019-03-06T02:43:27.008Z,93.29
2019-03-06T02:45:55.823Z,93.83
2019-03-06T02:48:24.450Z,95.01
2019-03-06T02:50:53.091Z,96.15
2019-03-06T02:53:21.791Z,96.55
2019-03-06T02:55:50.443Z,96.46
2019-03-06T02:58:25.808Z,96.18
2019-03-06T03:01:12.856Z,95.71
2019-03-06T03:04:18.673Z,95.04
2019-03-06T03:06:59.681Z,94.83
2019-03-06T03:09:28.334Z,94.96
2019-03-06T03:11:57.061Z,95.18
2019-03-06T03:14:26.159Z,95.06
2019-03-06T03:16:54.779Z,94.40
2019-03-06T03:19:23.418Z,94.13
2019-03-06T03:21:52.051Z,93.78
2019-03-06T03:24:20.859Z,93.25
2019-03-06T03:26:49.520Z,93.32
2019-03-06T03:29:18.139Z,93.31
2019-03-06T03:31:46.794Z,94.14
2019-03-06T03:34:15.397Z,93.90
2019-03-06T03:36:44.035Z,93.61
2019-03-06T03:39:12.689Z,93.78
2019-03-06T03:41:41.394Z,94.06
2019-03-06T03:44:10.019Z,94.17
2019-03-06T03:46:38.649Z,94.20
2019-03-06T03:49:07.334Z,95.10
2019-03-06T03:51:36.065Z,95.47
2019-03-06T03:54:04.773Z,95.40
2019-03-06T03:56:33.469Z,95.48
2019-03-06T03:59:02.158Z,95.21
2019-03-06T04:01:30.848Z,95.87
2019-03-06T04:03:59.923Z,96.47
2019-03-06T04:06:28.642Z,96.97
2019-03-06T04:08:57.330Z,96.82
2019-03-06T04:11:25.973Z,96.59
2019-03-06T04:13:54.627Z,96.62
2019-03-06T04:16:23.296Z,96.41
2019-03-06T04:18:51.904Z,96.12
2019-03-06T04:21:20.520Z,95.92
2019-03-06T04:23:49.160Z,95.63
2019-03-06T04:26:17.791Z,95.50
2019-03-06T04:28:46.428Z,95.46
2019-03-06T04:31:15.139Z,94.51
2019-03-06T04:33:43.850Z,94.57
2019-03-06T04:36:12.479Z,94.59
2019-03-06T04:38:41.099Z,95.56
2019-03-06T04:41:09.726Z,95.40
2019-03-06T04:43:38.524Z,95.20
2019-03-06T04:46:07.134Z,95.26
2019-03-06T04:48:35.769Z,94.85
2019-03-06T04:51:04.461Z,94.57
2019-03-06T04:53:33.358Z,94.38
2019-03-06T04:56:01.988Z,94.18
2019-03-06T04:58:30.649Z,94.13
2019-03-06T05:00:59.335Z,94.43
2019-03-06T05:03:27.955Z,94.41
2019-03-06T05:05:56.581Z,94.83
2019-03-06T05:08:25.242Z,95.06
2019-03-06T05:10:53.861Z,95.80
2019-03-06T05:13:22.479Z,96.08
2019-03-06T05:15:51.109Z,95.91
2019-03-06T05:18:25.521Z,95.97
2019-03-06T05:20:54.165Z,95.88
2019-03-06T05:23:22.790Z,95.59
2019-03-06T05:25:51.412Z,95.52
2019-03-06T05:28:20.028Z,95.54
2019-03-06T05:30:48.657Z,95.82
2019-03-06T05:33:17.299Z,96.51
2019-03-06T05:36:23.304Z,97.61
2019-03-06T05:39:11.507Z,96.87
2019-03-06T05:41:40.600Z,97.23
2019-03-06T05:44:09.731Z,96.97
2019-03-06T05:46:38.425Z,97.10
2019-03-06T05:49:07.138Z,96.99
2019-03-06T05:51:35.764Z,96.91
2019-03-06T05:54:04.525Z,96.00
2019-03-06T05:56:33.202Z,96.46
2019-03-06T05:59:01.841Z,97.22
2019-03-06T06:01:30.634Z,98.40
2019-03-06T06:03:59.398Z,98.36
2019-03-06T06:06:28.020Z,98.51
2019-03-06T06:08:56.947Z,98.00
2019-03-06T06:11:25.636Z,98.04
2019-03-06T06:13:54.349Z,97.32
2019-03-06T06:16:22.971Z,97.24
2019-03-06T06:18:51.655Z,97.15
2019-03-06T06:21:39.415Z,96.99
2019-03-06T06:24:14.465Z,97.36
2019-03-06T06:26:43.116Z,97.53
2019-03-06T06:29:11.816Z,98.71
2019-03-06T06:31:40.451Z,98.93
2019-03-06T06:34:09.096Z,98.81
2019-03-06T06:36:37.726Z,98.75
2019-03-06T06:39:06.845Z,99.10
2019-03-06T06:41:37.823Z,99.14
2019-03-06T06:44:06.510Z,98.97
2019-03-06T06:46:35.220Z,98.25
2019-03-06T06:49:03.829Z,98.32
2019-03-06T06:52:18.769Z,98.41
2019-03-06T06:55:18.201Z,98.03
2019-03-06T06:58:39.549Z,98.23
2019-03-06T07:02:06.259Z,98.40
2019-03-06T07:05:22.782Z,98.22
2019-03-06T07:08:10.549Z,98.25
2019-03-06T07:10:50.702Z,98.30
2019-03-06T07:13:37.038Z,98.53
2019-03-06T07:16:36.657Z,98.98
2019-03-06T07:19:27.342Z,99.22
2019-03-06T07:22:00.171Z,98.94
2019-03-06T07:24:40.144Z,98.51
2019-03-06T07:27:33.620Z,98.21
2019-03-06T07:30:11.515Z,97.99
2019-03-06T07:32:59.390Z,96.94
2019-03-06T07:36:23.900Z,97.07
2019-03-06T07:38:56.662Z,97.13
2019-03-06T07:41:45.231Z,97.06
2019-03-06T07:44:32.898Z,96.39
2019-03-06T07:47:17.830Z,96.44
2019-03-06T07:49:52.767Z,95.26
2019-03-06T07:52:43.050Z,95.43
2019-03-06T07:55:30.887Z,95.32
2019-03-06T07:58:35.990Z,94.81
2019-03-06T08:01:04.689Z,94.56
2019-03-06T08:04:00.722Z,94.16
2019-03-06T08:06:29.436Z,94.10
2019-03-06T08:08:58.079Z,94.27
2019-03-06T08:11:35.258Z,94.49
2019-03-06T08:14:08.766Z,94.59
2019-03-06T08:16:55.854Z,94.03
2019-03-06T08:19:34.901Z,93.65
2019-03-06T08:22:31.371Z,94.01
2019-03-06T08:25:08.216Z,94.07
2019-03-06T08:27:36.866Z,93.58
2019-03-06T08:30:07.744Z,92.73
2019-03-06T08:32:37.062Z,92.56
2019-03-06T08:35:07.278Z,92.06
2019-03-06T08:37:35.909Z,91.38
2019-03-06T08:40:05.068Z,90.76
2019-03-06T08:42:33.694Z,90.49
2019-03-06T08:45:02.474Z,90.15
2019-03-06T08:47:51.693Z,89.47
2019-03-06T08:50:41.481Z,89.96
2019-03-06T08:53:15.669Z,90.81
2019-03-06T08:55:52.383Z,90.20
2019-03-06T08:58:42.743Z,89.96
2019-03-06T09:01:46.857Z,91.46
2019-03-06T09:04:40.940Z,91.54
2019-03-06T09:07:22.321Z,90.95
2019-03-06T09:10:00.341Z,90.18
2019-03-06T09:12:48.575Z,88.53
2019-03-06T09:15:34.843Z,88.47
2019-03-06T09:18:14.205Z,87.67
2019-03-06T09:20:50.901Z,87.49
2019-03-06T09:23:53.559Z,86.90
2019-03-06T09:26:40.071Z,86.43
2019-03-06T09:29:18.682Z,85.66
2019-03-06T09:32:05.109Z,83.79
2019-03-06T09:34:48.107Z,82.88
2019-03-06T09:37:38.553Z,82.25
2019-03-06T09:40:28.580Z,81.34
2019-03-06T09:43:16.220Z,81.65
2019-03-06T09:45:56.364Z,80.35
2019-03-06T09:48:32.734Z,80.35
2019-03-06T09:51:19.875Z,80.34
2019-03-06T09:54:06.159Z,78.89
2019-03-06T09:56:48.587Z,79.05
2019-03-06T09:59:37.335Z,78.82
2019-03-06T10:02:14.104Z,78.79
2019-03-06T10:04:57.857Z,78.61
2019-03-06T10:07:33.290Z,77.88
2019-03-06T10:10:14.560Z,76.82
2019-03-06T10:13:04.950Z,77.05
2019-03-06T10:15:45.099Z,76.91
2019-03-06T10:18:21.190Z,75.56
2019-03-06T10:20:49.870Z,74.75
2019-03-06T10:23:18.580Z,74.67
2019-03-06T10:25:47.269Z,74.34
2019-03-06T10:28:15.900Z,73.01
2019-03-06T10:30:44.510Z,73.17
2019-03-06T10:33:13.237Z,72.23
2019-03-06T10:35:41.914Z,71.81
2019-03-06T10:38:16.545Z,69.21
2019-03-06T10:40:40.977Z,68.50
2019-03-06T10:43:09.672Z,66.64
2019-03-06T10:45:41.942Z,65.43
2019-03-06T10:48:08.871Z,63.00
2019-03-06T10:50:37.575Z,64.56
2019-03-06T10:53:06.367Z,63.33
2019-03-06T10:55:35.047Z,61.28
2019-03-06T10:58:03.901Z,61.31
2019-03-06T11:00:36.010Z,60.88
2019-03-06T11:03:05.372Z,59.64
2019-03-06T11:05:35.129Z,58.73
2019-03-06T11:08:05.531Z,58.28
2019-03-06T11:10:34.823Z,58.92
2019-03-06T11:13:08.484Z,58.54
2019-03-06T11:15:36.871Z,57.65
2019-03-06T11:18:05.809Z,57.93
2019-03-06T11:20:35.308Z,57.62
2019-03-06T11:23:04.513Z,56.98
2019-03-06T11:25:33.747Z,55.60
2019-03-06T11:28:02.450Z,51.99
2019-03-06T11:30:34.708Z,52.94
2019-03-06T11:33:03.800Z,51.66
2019-03-06T11:38:19.052Z,50.46
2019-03-06T11:40:47.726Z,51.00
2019-03-06T11:43:16.452Z,51.70
2019-03-06T11:45:45.564Z,50.64
2019-03-06T11:48:14.868Z,49.56
2019-03-06T11:50:43.949Z,50.50
2019-03-06T11:53:12.648Z,48.92
2019-03-06T11:55:41.407Z,49.35
2019-03-06T11:58:11.573Z,49.38
2019-03-06T12:00:42.511Z,49.02
2019-03-06T12:03:11.338Z,49.11
2019-03-06T12:05:40.423Z,50.09
2019-03-06T12:08:11.397Z,48.22
2019-03-06T12:10:40.029Z,47.40
2019-03-06T12:13:13.655Z,49.17
2019-03-06T12:15:43.389Z,48.45
2019-03-06T12:18:12.085Z,48.68
2019-03-06T12:20:40.805Z,49.44
2019-03-06T12:23:09.489Z,49.28
2019-03-06T12:25:38.249Z,48.02
2019-03-06T12:28:08.437Z,47.17
2019-03-06T12:30:38.836Z,47.81
2019-03-06T12:33:07.603Z,48.40
2019-03-06T12:35:36.439Z,48.22
2019-03-06T12:38:05.161Z,47.57
2019-03-06T12:40:34.163Z,47.39
2019-03-06T12:43:02.851Z,48.36
2019-03-06T12:45:31.818Z,47.71
2019-03-06T12:48:01.023Z,48.29
2019-03-06T12:50:30.533Z,49.04
2019-03-06T12:52:59.199Z,49.59
2019-03-06T12:55:27.816Z,46.53
2019-03-06T12:57:59.367Z,48.11
2019-03-06T13:00:26.975Z,47.68
2019-03-06T13:02:56.035Z,47.31
2019-03-06T13:05:25.039Z,47.45
2019-03-06T13:07:53.676Z,48.12
2019-03-06T13:10:22.429Z,48.19
2019-03-06T13:12:51.151Z,47.01
2019-03-06T13:15:22.747Z,47.58
2019-03-06T13:17:51.635Z,46.72
2019-03-06T13:20:20.392Z,47.83
2019-03-06T13:22:49.641Z,46.81
2019-03-06T13:25:20.335Z,46.72
2019-03-06T13:27:54.803Z,46.03
2019-03-06T13:30:20.460Z,46.75
2019-03-06T13:33:06.693Z,47.76
2019-03-06T13:35:35.416Z,47.42
2019-03-06T13:38:04.168Z,48.08
2019-03-06T13:40:32.797Z,47.22
2019-03-06T13:43:01.581Z,47.80
2019-03-06T13:45:30.229Z,48.82
2019-03-06T13:47:59.020Z,48.25
2019-03-06T13:50:27.801Z,47.52
2019-03-06T13:52:56.530Z,48.16
2019-03-06T13:55:25.173Z,48.34
2019-03-06T13:57:53.838Z,47.31
2019-03-06T14:00:22.653Z,47.84
2019-03-06T14:02:51.747Z,47.57
2019-03-06T14:05:20.868Z,45.91
2019-03-06T14:07:56.245Z,45.04
2019-03-06T14:10:21.188Z,45.65
2019-03-06T14:12:49.885Z,45.50
2019-03-06T14:15:18.594Z,46.28
2019-03-06T14:17:47.324Z,45.21
2019-03-06T14:20:16.971Z,45.73
2019-03-06T14:22:45.599Z,45.25
2019-03-06T14:25:16.001Z,42.95
2019-03-06T14:27:45.191Z,42.68
2019-03-06T14:30:14.666Z,42.92
2019-03-06T14:32:43.292Z,42.44
2019-03-06T14:35:12.079Z,41.40
2019-03-06T14:37:40.713Z,42.15
2019-03-06T14:40:14.451Z,41.87
2019-03-06T14:42:43.353Z,43.33
2019-03-06T14:45:14.266Z,43.26
2019-03-06T14:47:43.252Z,42.30
2019-03-06T14:50:11.926Z,43.32
2019-03-06T14:52:40.715Z,42.56
2019-03-06T14:55:10.956Z,42.74
2019-03-06T14:57:39.666Z,43.03
2019-03-06T15:00:10.186Z,42.99
2019-03-06T15:02:38.972Z,43.34
2019-03-06T15:05:07.666Z,42.63
2019-03-06T15:07:36.669Z,42.23
2019-03-06T15:10:06.997Z,42.73
2019-03-06T15:12:35.939Z,43.19
2019-03-06T15:15:05.100Z,43.10
2019-03-06T15:17:33.788Z,44.20
2019-03-06T15:20:02.404Z,43.49
2019-03-06T15:22:38.355Z,43.74
2019-03-06T15:25:01.473Z,43.95
2019-03-06T15:27:30.109Z,42.34
2019-03-06T15:29:58.817Z,44.01
2019-03-06T15:32:27.436Z,43.44
2019-03-06T15:34:56.238Z,43.15
2019-03-06T15:37:24.845Z,44.05
2019-03-06T15:39:53.703Z,43.92
2019-03-06T15:42:22.386Z,43.69
2019-03-06T15:44:51.019Z,43.52
2019-03-06T15:47:19.681Z,43.64
2019-03-06T15:49:48.335Z,44.21
2019-03-06T15:52:16.951Z,42.98
2019-03-06T15:54:46.037Z,43.95
2019-03-06T15:57:14.726Z,44.17
2019-03-06T15:59:43.413Z,45.53
2019-03-06T16:02:12.110Z,44.93
2019-03-06T16:04:40.808Z,44.70
2019-03-06T16:07:09.517Z,45.20
2019-03-06T16:09:38.580Z,45.11
2019-03-06T16:12:07.290Z,44.79
2019-03-06T16:14:35.967Z,44.90
2019-03-06T16:18:08.605Z,45.52
2019-03-06T16:20:37.543Z,45.09
2019-03-06T16:23:06.519Z,45.55
2019-03-06T16:25:37.984Z,45.50
2019-03-06T16:28:05.768Z,45.79
2019-03-06T16:30:34.404Z,45.61
2019-03-06T16:33:03.163Z,45.51
2019-03-06T16:35:31.865Z,46.35
2019-03-06T16:38:00.639Z,46.26
2019-03-06T16:40:30.658Z,46.86
2019-03-06T16:42:59.609Z,46.57
2019-03-06T16:45:28.560Z,47.04
2019-03-06T16:47:57.231Z,46.00
2019-03-06T16:50:26.018Z,47.45
2019-03-06T16:52:54.987Z,46.66
2019-03-06T16:55:24.019Z,46.86
2019-03-06T16:57:52.715Z,47.08
2019-03-06T17:00:31.456Z,47.56
2019-03-06T17:03:00.386Z,48.26
2019-03-06T17:05:29.082Z,48.68
2019-03-06T17:07:58.365Z,47.80
2019-03-06T17:10:27.507Z,48.52
2019-03-06T17:12:56.372Z,49.36
2019-03-06T17:15:25.432Z,49.30
2019-03-06T17:17:54.139Z,50.08
2019-03-06T17:20:24.259Z,50.28
2019-03-06T17:22:53.348Z,50.12
2019-03-06T17:25:22.237Z,50.50
2019-03-06T17:27:50.976Z,50.54
2019-03-06T17:30:21.280Z,51.22
2019-03-06T17:32:59.532Z,52.06
2019-03-06T17:35:28.439Z,52.00
2019-03-06T17:37:57.242Z,52.15
2019-03-06T17:40:25.851Z,52.53
2019-03-06T17:42:54.959Z,52.84
2019-03-06T17:45:23.649Z,53.30
2019-03-06T17:47:52.373Z,53.23
2019-03-06T17:50:21.311Z,55.21
2019-03-06T17:52:49.914Z,56.70
2019-03-06T17:55:18.546Z,58.32
2019-03-06T17:57:47.226Z,59.31
2019-03-06T18:00:17.586Z,59.90
2019-03-06T18:02:46.211Z,60.45
2019-03-06T18:05:15.032Z,63.21
2019-03-06T18:07:43.677Z,63.68
2019-03-06T18:10:13.252Z,63.87
2019-03-06T18:12:42.002Z,65.55
2019-03-06T18:15:11.693Z,67.02
2019-03-06T18:17:40.392Z,70.48
2019-03-06T18:20:11.111Z,69.97
2019-03-06T18:22:39.914Z,71.53
2019-03-06T18:25:11.060Z,72.56
2019-03-06T18:27:39.721Z,73.51
2019-03-06T18:30:10.157Z,73.36
2019-03-06T18:32:38.856Z,81.09
2019-03-06T18:35:08.182Z,83.15
2019-03-06T18:37:37.082Z,83.65
2019-03-06T18:40:07.677Z,81.99
2019-03-06T18:42:50.934Z,80.46
2019-03-06T18:45:28.660Z,80.34
2019-03-06T18:48:03.185Z,80.57
2019-03-06T18:50:35.546Z,80.55
2019-03-06T18:56:01.489Z,82.17
2019-03-06T18:58:30.811Z,82.80
2019-03-06T19:01:03.631Z,84.48
2019-03-06T19:03:37.451Z,84.52
2019-03-06T19:06:13.048Z,86.40
2019-03-06T19:08:42.582Z,86.07
2019-03-06T19:11:16.946Z,85.89
2019-03-06T19:13:45.683Z,85.95
2019-03-06T19:16:19.024Z,86.44
2019-03-06T19:18:48.406Z,85.29
2019-03-06T19:21:18.197Z,84.62
2019-03-06T19:23:48.307Z,83.85
2019-03-06T19:26:18.312Z,83.84
2019-03-06T19:29:00.599Z,85.01
2019-03-06T19:31:32.124Z,85.82
2019-03-06T19:34:01.240Z,85.96
2019-03-06T19:36:32.267Z,85.42
2019-03-06T19:39:01.065Z,85.78
2019-03-06T19:41:34.960Z,85.67
2019-03-06T19:44:07.437Z,85.11
2019-03-06T19:46:50.070Z,84.50
2019-03-06T19:49:24.356Z,84.54
2019-03-06T19:51:55.105Z,84.54
2019-03-06T19:54:29.815Z,84.66
2019-03-06T19:57:00.273Z,84.78
2019-03-06T19:59:43.081Z,85.28
2019-03-06T20:02:17.127Z,87.50
2019-03-06T20:04:47.504Z,89.00
2019-03-06T20:07:17.289Z,88.83
2019-03-06T20:10:04.357Z,89.16
2019-03-06T20:12:35.008Z,88.79
2019-03-06T20:15:04.295Z,88.46
2019-03-06T20:17:34.305Z,88.62
2019-03-06T20:20:05.462Z,89.08
2019-03-06T20:22:34.300Z,89.27
2019-03-06T20:25:04.053Z,91.05
2019-03-06T20:27:42.971Z,92.34
2019-03-06T20:30:15.350Z,93.00
2019-03-06T20:32:49.291Z,91.58
2019-03-06T20:35:20.753Z,90.18
2019-03-06T20:37:54.624Z,89.57
2019-03-06T20:40:23.767Z,89.81
2019-03-06T20:42:54.415Z,89.67
2019-03-06T20:45:25.367Z,88.50
2019-03-06T20:48:00.198Z,88.52
2019-03-06T20:50:29.580Z,87.84
2019-03-06T20:52:59.284Z,86.81
2019-03-06T20:55:29.155Z,86.69
2019-03-06T20:57:58.255Z,86.10
2019-03-06T21:00:28.393Z,86.18
2019-03-06T21:03:03.975Z,85.91
2019-03-06T21:08:10.443Z,88.34
2019-03-06T21:10:42.919Z,87.35
2019-03-06T21:13:12.965Z,86.43
2019-03-06T21:15:50.719Z,86.57
2019-03-06T21:18:21.728Z,86.86
2019-03-06T21:20:51.558Z,86.33
2019-03-06T21:23:22.584Z,86.59
2019-03-06T21:25:55.233Z,86.94
2019-03-06T21:28:25.802Z,88.80
2019-03-06T21:31:02.633Z,92.63
2019-03-06T21:34:14.590Z,94.11
2019-03-06T21:36:44.546Z,95.34
2019-03-06T21:39:27.210Z,94.80
2019-03-06T21:42:08.299Z,94.91
2019-03-06T21:44:37.036Z,94.02
2019-03-06T21:47:06.853Z,92.23
2019-03-06T21:49:36.565Z,91.25
2019-03-06T21:52:07.071Z,94.20
2019-03-06T21:54:36.367Z,97.18
2019-03-06T21:57:06.967Z,96.80
2019-03-06T21:59:36.074Z,95.97
2019-03-06T22:02:07.335Z,95.15
2019-03-06T22:04:36.148Z,94.07
2019-03-06T22:07:05.761Z,96.25
2019-03-06T22:09:40.502Z,97.01
2019-03-06T22:12:10.001Z,96.89
2019-03-06T22:14:40.076Z,96.49
2019-03-06T22:17:08.986Z,95.91
2019-03-06T22:19:39.942Z,97.48
2019-03-06T22:22:09.968Z,97.69
2019-03-06T22:24:43.686Z,98.70
2019-03-06T22:27:14.854Z,98.10
2019-03-06T22:29:44.227Z,97.16
2019-03-06T22:32:13.026Z,96.45
2019-03-06T22:34:46.798Z,96.29
2019-03-06T22:37:17.914Z,97.22
2019-03-06T22:39:48.889Z,98.99
2019-03-06T22:42:18.162Z,98.87
2019-03-06T22:44:48.534Z,98.25
2019-03-06T22:47:18.238Z,97.73
2019-03-06T22:49:47.764Z,97.30
2019-03-06T22:52:17.858Z,97.34
2019-03-06T22:54:47.028Z,97.27
2019-03-06T22:57:19.521Z,97.32
2019-03-06T22:59:55.616Z,96.98
2019-03-06T23:02:28.570Z,96.81
2019-03-06T23:04:57.944Z,96.53
2019-03-06T23:07:42.725Z,96.70
2019-03-06T23:10:15.172Z,97.81
2019-03-06T23:12:48.335Z,98.42
2019-03-06T23:15:20.419Z,99.26
2019-03-06T23:17:49.737Z,100.00
2019-03-06T23:20:27.957Z,100.00
2019-03-06T23:22:57.947Z,99.44
2019-03-06T23:25:29.534Z,100.00
2019-03-06T23:28:19.261Z,100.00
2019-03-06T23:30:46.787Z,100.00
2019-03-06T23:33:15.746Z,98.84
2019-03-06T23:35:44.925Z,98.20
2019-03-06T23:38:14.325Z,97.71
2019-03-06T23:40:43.202Z,97.45
2019-03-06T23:43:11.823Z,97.14
2019-03-06T23:45:40.814Z,97.25
2019-03-06T23:48:09.635Z,97.72
2019-03-06T23:50:38.344Z,98.55
2019-03-06T23:53:08.209Z,100.00
2019-03-06T23:55:36.892Z,100.00
2019-03-06T23:58:05.928Z,99.58
